createdAt,value
2019-04-21T00:00:00.508Z,11.12
2019-04-21T00:02:32.507Z,11.38
2019-04-21T00:05:16.494Z,11.48
2019-04-21T00:07:49.475Z,10.88
2019-04-21T00:10:14.987Z,10.18
2019-04-21T00:12:40.545Z,10.82
2019-04-21T00:15:02.217Z,10.18
2019-04-21T00:17:21.702Z,11.85
2019-04-21T00:20:05.487Z,10.50
2019-04-21T00:22:37.745Z,11.50
2019-04-21T00:25:08.953Z,10.25
2019-04-21T00:27:39.654Z,10.65
2019-04-21T00:30:14.213Z,10.78
2019-04-21T00:32:31.387Z,10.82
2019-04-21T00:34:53.581Z,9.83
2019-04-21T00:37:24.124Z,9.55
2019-04-21T00:40:03.743Z,9.45
2019-04-21T00:42:29.268Z,9.15
2019-04-21T00:44:59.152Z,9.78
2019-04-21T00:47:30.408Z,9.78
2019-04-21T00:50:00.786Z,8.90
2019-04-21T00:52:52.605Z,9.13
2019-04-21T00:55:20.209Z,9.70
2019-04-21T00:57:45.314Z,8.83
2019-04-21T01:00:10.186Z,9.00
2019-04-21T01:02:41.613Z,9.45
2019-04-21T01:05:07.024Z,9.63
2019-04-21T01:07:33.662Z,10.18
2019-04-21T01:09:52.603Z,10.55
2019-04-21T01:12:28.207Z,9.73
2019-04-21T01:15:04.705Z,9.88
2019-04-21T01:17:27.714Z,9.43
2019-04-21T01:19:51.219Z,10.20
2019-04-21T01:22:03.422Z,10.35
2019-04-21T01:24:34.719Z,9.75
2019-04-21T01:27:10.101Z,10.38
2019-04-21T01:29:45.986Z,9.78
2019-04-21T01:32:18.785Z,10.28
2019-04-21T01:34:45.319Z,9.38
2019-04-21T01:37:10.746Z,9.60
2019-04-21T01:39:51.473Z,9.80
2019-04-21T01:42:11.341Z,9.90
2019-04-21T01:44:41.669Z,10.28
2019-04-21T01:47:03.340Z,10.82
2019-04-21T01:49:26.374Z,10.38
2019-04-21T01:52:18.090Z,10.50
2019-04-21T01:54:57.120Z,10.00
2019-04-21T01:57:22.986Z,9.98
2019-04-21T01:59:51.216Z,9.28
2019-04-21T02:02:28.044Z,9.58
2019-04-21T02:04:57.562Z,10.45
2019-04-21T02:07:27.486Z,10.30
2019-04-21T02:09:51.340Z,11.03
2019-04-21T02:12:18.874Z,10.20
2019-04-21T02:15:00.749Z,10.88
2019-04-21T02:17:18.609Z,10.93
2019-04-21T02:19:45.091Z,10.48
2019-04-21T02:22:12.536Z,10.15
2019-04-21T02:24:49.628Z,11.22
2019-04-21T02:27:13.986Z,9.28
2019-04-21T02:29:51.945Z,10.25
2019-04-21T02:32:24.380Z,9.83
2019-04-21T02:39:49.502Z,10.80
2019-04-21T02:42:09.745Z,10.08
2019-04-21T02:47:13.620Z,11.12
2019-04-21T02:49:57.490Z,10.72
2019-04-21T02:52:11.577Z,10.28
2019-04-21T02:57:13.672Z,10.25
2019-04-21T02:59:42.576Z,10.10
2019-04-21T03:02:17.048Z,11.28
2019-04-21T03:04:53.333Z,11.00
2019-04-21T03:09:57.907Z,9.73
2019-04-21T03:12:18.112Z,10.32
2019-04-21T03:14:56.097Z,9.78
2019-04-21T03:17:14.236Z,10.43
2019-04-21T03:22:18.627Z,9.83
2019-04-21T03:25:01.230Z,10.32
2019-04-21T03:27:25.853Z,10.48
2019-04-21T03:29:54.390Z,10.58
2019-04-21T03:32:58.882Z,11.15
2019-04-21T03:35:19.284Z,10.25
2019-04-21T03:37:23.309Z,10.48
2019-04-21T03:39:56.833Z,9.28
2019-04-21T03:47:20.830Z,10.53
2019-04-21T03:55:47.243Z,11.03
2019-04-21T04:00:27.646Z,9.73
2019-04-21T04:03:21.019Z,11.30
2019-04-21T04:05:55.605Z,10.68
2019-04-21T04:08:31.932Z,10.40
2019-04-21T04:16:00.514Z,10.40
2019-04-21T04:18:28.376Z,11.05
2019-04-21T04:20:42.480Z,9.75
2019-04-21T04:23:31.360Z,10.13
2019-04-21T04:25:42.389Z,10.23
2019-04-21T04:28:28.050Z,10.30
2019-04-21T04:30:58.239Z,11.00
2019-04-21T04:33:11.676Z,10.10
2019-04-21T04:38:18.001Z,10.70
2019-04-21T04:40:51.295Z,10.13
2019-04-21T04:43:23.194Z,10.55
2019-04-21T04:45:48.423Z,10.68
2019-04-21T04:53:12.025Z,10.82
2019-04-21T04:55:43.412Z,11.55
2019-04-21T04:58:06.868Z,11.08
2019-04-21T05:03:01.011Z,9.68
2019-04-21T05:05:55.644Z,8.45
2019-04-21T05:08:34.135Z,11.30
2019-04-21T05:13:21.876Z,10.65
2019-04-21T05:15:53.245Z,9.70
2019-04-21T05:18:18.581Z,10.28
2019-04-21T05:21:00.227Z,9.88
2019-04-21T05:23:06.768Z,10.50
2019-04-21T05:25:26.710Z,11.08
2019-04-21T05:28:01.034Z,10.48
2019-04-21T05:30:40.370Z,10.38
2019-04-21T05:33:09.215Z,10.03
2019-04-21T05:35:47.906Z,10.80
2019-04-21T05:38:10.613Z,9.55
2019-04-21T05:40:41.420Z,10.10
2019-04-21T05:43:07.842Z,8.55
2019-04-21T05:45:40.793Z,9.40
2019-04-21T05:50:53.842Z,9.28
2019-04-21T05:53:29.591Z,9.03
2019-04-21T05:56:02.045Z,9.83
2019-04-21T05:58:27.204Z,9.05
2019-04-21T06:03:37.936Z,9.28
2019-04-21T06:06:00.760Z,8.88
2019-04-21T06:08:29.773Z,9.20
2019-04-21T06:10:58.801Z,8.65
2019-04-21T06:13:27.953Z,8.53
2019-04-21T06:15:56.981Z,8.78
2019-04-21T06:18:30.150Z,8.45
2019-04-21T06:20:51.546Z,9.93
2019-04-21T06:23:20.975Z,9.53
2019-04-21T06:28:19.280Z,10.03
2019-04-21T06:30:58.003Z,10.05
2019-04-21T06:33:15.591Z,10.58
2019-04-21T06:36:21.475Z,10.23
2019-04-21T06:38:38.125Z,11.35
2019-04-21T06:41:00.419Z,10.88
2019-04-21T06:45:54.223Z,11.20
2019-04-21T06:48:22.486Z,11.78
2019-04-21T06:50:47.968Z,11.38
2019-04-21T06:53:10.828Z,11.55
2019-04-21T06:55:41.923Z,11.97
2019-04-21T06:58:10.130Z,11.70
2019-04-21T07:00:38.470Z,10.72
2019-04-21T07:03:16.069Z,11.83
2019-04-21T07:05:41.389Z,11.50
2019-04-21T07:08:28.134Z,11.20
2019-04-21T07:10:31.784Z,11.73
2019-04-21T07:13:03.659Z,12.50
2019-04-21T07:15:36.996Z,11.08
2019-04-21T07:18:09.014Z,12.35
2019-04-21T07:20:29.770Z,11.20
2019-04-21T07:23:05.148Z,11.57
2019-04-21T07:25:32.699Z,11.90
2019-04-21T07:27:58.018Z,11.30
2019-04-21T07:30:31.659Z,10.68
2019-04-21T07:33:07.309Z,11.22
2019-04-21T07:35:25.545Z,10.53
2019-04-21T07:37:53.457Z,10.82
2019-04-21T07:40:21.776Z,11.28
2019-04-21T07:42:48.921Z,11.93
2019-04-21T07:45:13.352Z,10.98
2019-04-21T07:47:50.708Z,10.95
2019-04-21T07:50:28.643Z,10.78
2019-04-21T07:53:05.153Z,10.98
2019-04-21T07:57:44.115Z,9.80
2019-04-21T08:00:32.447Z,9.30
2019-04-21T08:02:52.447Z,8.90
2019-04-21T08:05:20.517Z,8.93
2019-04-21T08:10:09.123Z,7.25
2019-04-21T08:12:37.951Z,7.58
2019-04-21T08:15:15.666Z,8.48
2019-04-21T08:17:38.356Z,7.33
2019-04-21T08:20:09.266Z,7.80
2019-04-21T08:22:41.343Z,7.37
2019-04-21T08:25:03.155Z,7.60
2019-04-21T08:27:36.485Z,8.20
2019-04-21T08:30:01.650Z,7.47
2019-04-21T08:32:38.567Z,6.92
2019-04-21T08:35:23.918Z,7.50
2019-04-21T08:37:30.758Z,7.65
2019-04-21T08:40:04.572Z,7.12
2019-04-21T08:42:25.686Z,7.87
2019-04-21T08:45:00.196Z,7.47
2019-04-21T08:47:29.947Z,7.80
2019-04-21T08:49:54.798Z,6.70
2019-04-21T08:52:37.056Z,7.05
2019-04-21T08:54:55.790Z,6.97
2019-04-21T08:57:24.259Z,7.25
2019-04-21T09:00:08.732Z,6.40
2019-04-21T09:02:43.085Z,6.17
2019-04-21T09:05:05.084Z,6.35
2019-04-21T09:10:03.253Z,6.42
2019-04-21T09:12:33.358Z,5.55
2019-04-21T09:14:55.330Z,5.83
2019-04-21T09:17:22.148Z,5.85
2019-04-21T09:19:58.870Z,4.90
2019-04-21T09:22:28.366Z,5.28
2019-04-21T09:24:51.907Z,4.95
2019-04-21T09:27:21.810Z,5.70
2019-04-21T09:29:39.421Z,5.65
2019-04-21T09:32:01.417Z,5.42
2019-04-21T09:34:35.297Z,5.33
2019-04-21T09:37:12.710Z,5.22
2019-04-21T09:39:29.605Z,4.22
2019-04-21T09:42:00.359Z,5.67
2019-04-21T09:44:30.639Z,5.28
2019-04-21T09:50:08.519Z,4.78
2019-04-21T09:52:44.223Z,4.70
2019-04-21T09:55:13.385Z,4.65
2019-04-21T09:57:42.678Z,4.83
2019-04-21T10:00:13.085Z,4.40
2019-04-21T10:02:43.880Z,4.80
2019-04-21T10:05:05.345Z,4.53
2019-04-21T10:07:38.171Z,4.45
2019-04-21T10:10:01.244Z,4.17
2019-04-21T10:12:28.731Z,4.58
2019-04-21T10:14:55.480Z,4.08
2019-04-21T10:17:24.117Z,4.70
2019-04-21T10:19:50.898Z,4.20
2019-04-21T10:22:18.964Z,4.40
2019-04-21T10:25:10.492Z,4.28
2019-04-21T10:27:39.113Z,4.08
2019-04-21T10:30:29.239Z,4.70
2019-04-21T10:32:56.577Z,4.20
2019-04-21T10:35:24.617Z,4.17
2019-04-21T10:38:04.393Z,3.80
2019-04-21T10:40:21.265Z,3.83
2019-04-21T10:42:48.160Z,3.98
2019-04-21T10:45:17.026Z,4.42
2019-04-21T10:47:45.035Z,4.08
2019-04-21T10:50:13.109Z,4.55
2019-04-21T10:52:58.765Z,4.50
2019-04-21T10:55:45.111Z,4.72
2019-04-21T10:58:14.426Z,4.30
2019-04-21T11:00:46.188Z,4.25
2019-04-21T11:06:00.917Z,4.40
2019-04-21T11:08:35.436Z,4.53
2019-04-21T11:10:58.197Z,4.60
2019-04-21T11:13:24.821Z,4.37
2019-04-21T11:15:52.903Z,4.90
2019-04-21T11:18:19.863Z,4.10
2019-04-21T11:20:46.948Z,4.20
2019-04-21T11:23:14.255Z,4.28
2019-04-21T11:25:42.173Z,4.58
2019-04-21T11:28:09.056Z,4.40
2019-04-21T11:30:35.861Z,4.37
2019-04-21T11:33:03.565Z,4.70
2019-04-21T11:35:32.986Z,4.80
2019-04-21T11:38:08.365Z,4.25
2019-04-21T11:40:31.748Z,4.20
2019-04-21T11:43:00.342Z,4.67
2019-04-21T11:45:34.669Z,5.00
2019-04-21T11:48:06.134Z,4.97
2019-04-21T11:50:33.099Z,4.15
2019-04-21T11:53:01.115Z,4.08
2019-04-21T11:55:34.333Z,4.30
2019-04-21T11:57:56.540Z,4.40
2019-04-21T12:00:23.984Z,4.05
2019-04-21T12:02:51.215Z,4.00
2019-04-21T12:05:19.265Z,4.10
2019-04-21T12:07:47.168Z,4.05
2019-04-21T12:10:15.393Z,4.55
2019-04-21T12:12:43.345Z,3.92
2019-04-21T12:15:12.147Z,3.90
2019-04-21T12:17:39.486Z,3.95
2019-04-21T12:20:06.472Z,3.95
2019-04-21T12:22:34.112Z,3.90
2019-04-21T12:25:03.054Z,4.62
2019-04-21T12:27:31.992Z,4.62
2019-04-21T12:29:59.671Z,4.53
2019-04-21T12:32:44.675Z,4.22
2019-04-21T12:35:13.504Z,4.15
2019-04-21T12:37:40.682Z,4.50
2019-04-21T12:40:08.516Z,4.10
2019-04-21T12:42:38.842Z,4.47
2019-04-21T12:45:07.484Z,4.37
2019-04-21T12:47:34.339Z,4.28
2019-04-21T12:50:02.582Z,4.40
2019-04-21T12:52:29.544Z,4.70
2019-04-21T12:54:57.525Z,4.33
2019-04-21T12:57:25.411Z,4.67
2019-04-21T12:59:52.927Z,4.28
2019-04-21T13:02:19.901Z,4.53
2019-04-21T13:04:49.187Z,4.22
2019-04-21T13:07:15.448Z,4.30
2019-04-21T13:09:42.148Z,4.28
2019-04-21T13:12:08.986Z,4.08
2019-04-21T13:14:35.918Z,4.42
2019-04-21T13:17:03.455Z,4.75
2019-04-21T13:19:31.444Z,4.53
2019-04-21T13:21:58.360Z,4.20
2019-04-21T13:24:26.136Z,3.90
2019-04-21T13:26:58.091Z,4.45
2019-04-21T13:29:21.530Z,4.47
2019-04-21T13:31:48.420Z,4.37
2019-04-21T13:34:15.875Z,4.25
2019-04-21T13:36:43.651Z,4.45
2019-04-21T13:39:50.279Z,3.50
2019-04-21T13:42:06.391Z,4.55
2019-04-21T13:44:23.642Z,3.92
2019-04-21T13:46:50.603Z,4.42
2019-04-21T13:49:19.197Z,4.20
2019-04-21T13:51:46.092Z,4.50
2019-04-21T13:54:13.866Z,4.42
2019-04-21T13:56:40.827Z,4.25
2019-04-21T13:59:10.558Z,3.98
2019-04-21T14:01:37.459Z,4.62
2019-04-21T14:04:05.290Z,4.17
2019-04-21T14:06:32.231Z,4.10
2019-04-21T14:09:01.128Z,4.33
2019-04-21T14:11:31.321Z,4.62
2019-04-21T14:13:58.589Z,4.42
2019-04-21T14:16:26.629Z,4.25
2019-04-21T14:18:55.122Z,4.53
2019-04-21T14:21:23.130Z,4.15
2019-04-21T14:23:52.504Z,4.50
2019-04-21T14:26:18.445Z,4.08
2019-04-21T14:28:45.221Z,3.90
2019-04-21T14:31:12.507Z,4.05
2019-04-21T14:33:40.276Z,4.17
2019-04-21T14:36:08.496Z,4.70
2019-04-21T14:38:36.628Z,4.15
2019-04-21T14:41:04.055Z,4.05
2019-04-21T14:43:32.041Z,4.30
2019-04-21T14:46:19.468Z,4.35
2019-04-21T14:49:05.552Z,4.90
2019-04-21T14:51:37.123Z,4.40
2019-04-21T14:54:06.099Z,4.40
2019-04-21T14:56:33.452Z,4.20
2019-04-21T14:59:01.341Z,4.03
2019-04-21T15:01:28.868Z,4.20
2019-04-21T15:03:55.577Z,3.72
2019-04-21T15:06:23.161Z,3.95
2019-04-21T15:08:51.083Z,4.37
2019-04-21T15:11:18.078Z,4.42
2019-04-21T15:13:45.929Z,4.22
2019-04-21T15:16:13.033Z,4.05
2019-04-21T15:18:41.004Z,4.15
2019-04-21T15:21:07.887Z,4.08
2019-04-21T15:23:36.116Z,4.10
2019-04-21T15:26:04.156Z,4.10
2019-04-21T15:28:33.816Z,4.08
2019-04-21T15:31:00.720Z,4.00
2019-04-21T15:33:28.597Z,4.30
2019-04-21T15:35:55.489Z,4.47
2019-04-21T15:38:22.383Z,4.22
2019-04-21T15:40:55.437Z,4.33
2019-04-21T15:43:18.246Z,4.22
2019-04-21T15:45:46.688Z,4.33
2019-04-21T15:48:14.029Z,4.03
2019-04-21T15:50:41.908Z,3.67
2019-04-21T15:53:11.915Z,4.25
2019-04-21T15:55:55.210Z,4.33
2019-04-21T15:58:30.461Z,3.83
2019-04-21T16:01:16.487Z,4.12
2019-04-21T16:03:44.761Z,4.05
2019-04-21T16:06:13.605Z,4.75
2019-04-21T16:08:40.664Z,4.37
2019-04-21T16:11:10.842Z,3.70
2019-04-21T16:13:37.349Z,4.30
2019-04-21T16:16:04.348Z,4.10
2019-04-21T16:18:32.195Z,4.08
2019-04-21T16:20:59.927Z,3.85
2019-04-21T16:23:26.798Z,4.28
2019-04-21T16:25:54.739Z,4.33
2019-04-21T16:28:21.698Z,3.95
2019-04-21T16:30:48.842Z,4.00
2019-04-21T16:33:15.982Z,4.12
2019-04-21T16:35:44.089Z,4.10
2019-04-21T16:38:11.279Z,4.00
2019-04-21T16:40:46.824Z,4.37
2019-04-21T16:43:07.984Z,4.40
2019-04-21T16:45:35.000Z,3.62
2019-04-21T16:48:03.133Z,3.75
2019-04-21T16:50:30.257Z,4.25
2019-04-21T16:53:01.787Z,4.03
2019-04-21T16:55:46.993Z,3.98
2019-04-21T16:58:25.100Z,4.10
2019-04-21T17:03:36.749Z,3.80
2019-04-21T17:06:05.132Z,3.70
2019-04-21T17:08:33.781Z,3.80
2019-04-21T17:11:10.803Z,3.98
2019-04-21T17:13:29.654Z,4.22
2019-04-21T17:16:28.655Z,3.77
2019-04-21T17:16:34.732Z,4.50
2019-04-21T17:18:44.923Z,4.12
2019-04-21T17:20:57.700Z,4.00
2019-04-21T17:23:22.218Z,3.87
2019-04-21T17:25:48.957Z,4.00
2019-04-21T17:28:15.816Z,3.47
2019-04-21T17:30:42.713Z,3.60
2019-04-21T17:33:14.697Z,3.47
2019-04-21T17:35:38.604Z,3.45
2019-04-21T17:38:05.873Z,3.95
2019-04-21T17:40:33.773Z,4.08
2019-04-21T17:43:05.514Z,3.52
2019-04-21T17:45:29.493Z,4.17
2019-04-21T17:48:02.456Z,3.90
2019-04-21T17:50:31.651Z,3.72
2019-04-21T17:53:05.005Z,3.30
2019-04-21T17:55:37.365Z,3.90
2019-04-21T17:58:18.244Z,3.95
2019-04-21T18:03:32.793Z,3.72
2019-04-21T18:05:48.470Z,4.08
2019-04-21T18:08:18.478Z,4.12
2019-04-21T18:10:39.025Z,4.12
2019-04-21T18:13:04.272Z,3.75
2019-04-21T18:15:40.210Z,3.70
2019-04-21T18:17:54.579Z,3.70
2019-04-21T18:20:23.939Z,3.92
2019-04-21T18:22:59.120Z,4.17
2019-04-21T18:25:44.437Z,3.37
2019-04-21T18:28:00.746Z,3.98
2019-04-21T18:30:40.278Z,3.55
2019-04-21T18:33:13.760Z,3.70
2019-04-21T18:35:58.617Z,4.47
2019-04-21T18:39:04.207Z,5.33
2019-04-21T18:41:17.299Z,4.97
2019-04-21T18:44:17.682Z,4.92
2019-04-21T18:46:38.608Z,4.90
2019-04-21T18:48:51.570Z,4.50
2019-04-21T18:51:21.932Z,4.70
2019-04-21T18:54:07.080Z,5.65
2019-04-21T18:56:19.518Z,5.28
2019-04-21T18:58:46.665Z,5.08
2019-04-21T19:01:20.870Z,5.03
2019-04-21T19:03:47.208Z,4.75
2019-04-21T19:06:16.954Z,5.00
2019-04-21T19:08:59.743Z,4.17
2019-04-21T19:11:25.404Z,5.15
2019-04-21T19:21:32.780Z,4.72
2019-04-21T19:24:17.856Z,4.60
2019-04-21T19:29:16.642Z,4.12
2019-04-21T19:31:32.406Z,4.08
2019-04-21T19:33:53.168Z,3.95
2019-04-21T19:36:13.079Z,3.80
2019-04-21T19:38:48.964Z,3.60
2019-04-21T19:41:25.446Z,3.95
2019-04-21T19:43:57.552Z,4.33
2019-04-21T19:46:27.819Z,5.05
2019-04-21T19:49:01.276Z,5.03
2019-04-21T19:51:18.169Z,4.60
2019-04-21T19:53:44.919Z,5.15
2019-04-21T19:56:00.571Z,5.58
2019-04-21T19:58:32.989Z,5.10
2019-04-21T20:00:57.483Z,4.70
2019-04-21T20:03:24.572Z,4.60
2019-04-21T20:06:00.500Z,4.60
2019-04-21T20:08:34.403Z,4.12
2019-04-21T20:11:10.422Z,3.90
2019-04-21T20:13:45.325Z,4.65
2019-04-21T20:16:07.926Z,5.55
2019-04-21T20:18:23.816Z,4.50
2019-04-21T20:20:43.839Z,4.03
2019-04-21T20:23:17.555Z,4.30
2019-04-21T20:25:47.474Z,3.60
2019-04-21T20:28:17.353Z,4.08
2019-04-21T20:30:58.420Z,3.87
2019-04-21T20:33:42.727Z,4.08
2019-04-21T20:35:59.441Z,4.00
2019-04-21T20:38:15.623Z,3.47
2019-04-21T20:40:42.791Z,4.87
2019-04-21T20:43:17.687Z,4.20
2019-04-21T20:45:49.431Z,4.95
2019-04-21T20:48:09.422Z,4.75
2019-04-21T20:50:38.054Z,4.28
2019-04-21T20:53:11.132Z,4.50
2019-04-21T20:55:35.366Z,4.20
2019-04-21T20:58:03.151Z,3.77
2019-04-21T21:00:46.178Z,4.00
2019-04-21T21:03:09.280Z,3.77
2019-04-21T21:05:27.550Z,3.80
2019-04-21T21:08:08.625Z,4.00
2019-04-21T21:10:34.801Z,4.30
2019-04-21T21:13:10.504Z,4.03
2019-04-21T21:15:34.098Z,4.47
2019-04-21T21:18:06.178Z,3.70
2019-04-21T21:20:32.465Z,3.98
2019-04-21T21:22:50.847Z,3.85
2019-04-21T21:25:35.336Z,3.67
2019-04-21T21:27:49.409Z,3.92
2019-04-21T21:30:18.298Z,4.03
2019-04-21T21:32:49.401Z,4.53
2019-04-21T21:35:18.888Z,4.10
2019-04-21T21:37:54.907Z,4.10
2019-04-21T21:40:21.974Z,3.80
2019-04-21T21:42:35.399Z,5.05
2019-04-21T21:45:04.886Z,4.42
2019-04-21T21:47:47.458Z,4.92
2019-04-21T21:50:08.882Z,4.50
2019-04-21T21:52:39.926Z,4.12
2019-04-21T21:54:53.895Z,4.25
2019-04-21T21:57:20.676Z,4.78
2019-04-21T21:59:52.929Z,4.20
2019-04-21T22:02:29.326Z,4.37
2019-04-21T22:04:58.254Z,4.42
2019-04-21T22:07:17.828Z,4.60
2019-04-21T22:09:44.295Z,4.40
2019-04-21T22:12:12.383Z,4.87
2019-04-21T22:14:44.889Z,4.60
2019-04-21T22:17:24.767Z,4.45
2019-04-21T22:20:05.379Z,4.60
2019-04-21T22:22:17.956Z,4.33
2019-04-21T22:24:49.340Z,4.53
2019-04-21T22:27:03.266Z,4.28
2019-04-21T22:29:38.146Z,4.35
2019-04-21T22:32:04.222Z,4.17
2019-04-21T22:34:32.718Z,4.50
2019-04-21T22:37:07.291Z,4.78
2019-04-21T22:39:42.101Z,4.53
2019-04-21T22:42:01.859Z,4.58
2019-04-21T22:44:22.730Z,4.17
2019-04-21T22:46:59.484Z,4.75
2019-04-21T22:49:18.689Z,4.65
2019-04-21T22:51:50.042Z,4.55
2019-04-21T22:54:24.516Z,4.55
2019-04-21T22:56:53.995Z,4.83
2019-04-21T22:59:15.939Z,4.78
2019-04-21T23:01:46.082Z,5.08
2019-04-21T23:04:10.691Z,5.50
2019-04-21T23:06:39.593Z,5.03
2019-04-21T23:09:08.819Z,4.22
2019-04-21T23:11:41.807Z,4.85
2019-04-21T23:14:08.172Z,4.90
2019-04-21T23:16:37.733Z,5.12
2019-04-21T23:19:20.124Z,4.95
2019-04-21T23:21:53.859Z,5.50
2019-04-21T23:24:14.926Z,4.95
2019-04-21T23:26:44.870Z,6.05
2019-04-21T23:29:13.937Z,4.90
2019-04-21T23:31:46.092Z,5.55
2019-04-21T23:33:54.680Z,5.15
2019-04-21T23:36:26.251Z,5.00
2019-04-21T23:38:53.210Z,5.35
2019-04-21T23:41:19.451Z,4.70
2019-04-21T23:43:55.396Z,5.25
2019-04-21T23:46:20.371Z,5.10
2019-04-21T23:49:01.801Z,4.83
2019-04-21T23:51:27.461Z,4.85
2019-04-21T23:53:43.681Z,5.15
2019-04-21T23:56:13.410Z,5.12
2019-04-21T23:58:40.358Z,5.25
